| time (UTC) | temp F | wind direction | speed MPH | gust MPH | rain 1hr in | rain 24hr in | rain mn in | humidity % | barometer mb |
| 20260906183034 | 92 | 306 | 5.0 | 12.0 | 0.00 | 0.05 | 0.00 | 62 | 1013.2 |
| 20260906182516 | 93 | 286 | 3.0 | 11.0 | 0.00 | 0.05 | 0.00 | 63 | 1013.1 |
| 20260906182018 | 93 | 270 | 5.0 | 11.0 | 0.00 | 0.05 | 0.00 | 63 | 1013.1 |
| 20260906181525 | 92 | 270 | 4.0 | 12.0 | 0.00 | 0.05 | 0.00 | 64 | 1013.2 |
| 20260906181007 | 92 | 316 | 4.0 | 11.0 | 0.00 | 0.05 | 0.00 | 64 | 1013.3 |
| 20260906180512 | 92 | 257 | 3.0 | 13.0 | 0.00 | 0.05 | 0.00 | 64 | 1013.2 |
| 20260906180026 | 92 | 275 | 2.0 | 13.0 | 0.00 | 0.05 | 0.00 | 64 | 1013.3 |
| 20260906175514 | 92 | 290 | 1.0 | 11.0 | 0.00 | 0.05 | 0.00 | 66 | 1013.2 |
| 20260906175014 | 92 | 284 | 5.0 | 11.0 | 0.00 | 0.05 | 0.00 | 67 | 1013.2 |
| 20260906174530 | 92 | 273 | 3.0 | 12.0 | 0.00 | 0.05 | 0.00 | 68 | 1013.4 |
| 20260906174010 | 91 | 263 | 2.0 | 12.0 | 0.00 | 0.05 | 0.00 | 67 | 1013.4 |
| 20260906173514 | 91 | 258 | 7.0 | 18.0 | 0.00 | 0.05 | 0.00 | 67 | 1013.4 |
| 20260906173033 | 91 | 289 | 9.0 | 18.0 | 0.00 | 0.05 | 0.00 | 67 | 1013.5 |
| 20260906172516 | 92 | 267 | 4.0 | 17.0 | 0.00 | 0.05 | 0.00 | 68 | 1013.5 |
| 20260906172011 | 92 | 268 | 6.0 | 17.0 | 0.00 | 0.05 | 0.00 | 67 | 1013.6 |
| 20260906171531 | 93 | 277 | 4.0 | 14.0 | 0.00 | 0.05 | 0.00 | 64 | 1013.5 |
| 20260906171017 | 94 | 215 | 0.0 | 8.0 | 0.00 | 0.05 | 0.00 | 68 | 1013.4 |
| 20260906170512 | 93 | 234 | 1.0 | 11.0 | 0.00 | 0.05 | 0.00 | 69 | 1013.6 |
| 20260906170023 | 93 | 195 | 4.0 | 11.0 | 0.00 | 0.05 | 0.00 | 67 | 1013.8 |
| 20260906165510 | 92 | 250 | 0.0 | 2.0 | 0.00 | 0.05 | 0.00 | 71 | 1013.7 |
| 20260906165011 | 92 | 184 | 0.0 | 4.0 | 0.00 | 0.05 | 0.00 | 68 | 1013.8 |
| 20260906164535 | 92 | 259 | 0.0 | 4.0 | 0.00 | 0.05 | 0.00 | 67 | 1013.9 |
| 20260906164012 | 92 | 237 | 0.0 | 4.0 | 0.00 | 0.05 | 0.00 | 69 | 1014.0 |
| 20260906163513 | 92 | 238 | 0.0 | 4.0 | 0.00 | 0.05 | 0.00 | 68 | 1014.0 |
| 20260906163026 | 92 | 222 | 0.0 | 8.0 | 0.00 | 0.05 | 0.00 | 70 | 1014.0 |
| 20260906162518 | 92 | 332 | 0.0 | 8.0 | 0.00 | 0.05 | 0.00 | 70 | 1014.1 |
| 20260906162013 | 92 | 24 | 0.0 | 7.0 | 0.00 | 0.05 | 0.00 | 69 | 1014.1 |
| 20260906161535 | 91 | 242 | 0.0 | 7.0 | 0.00 | 0.05 | 0.00 | 73 | 1014.2 |
| 20260906161013 | 91 | 235 | 0.0 | 1.0 | 0.00 | 0.05 | 0.00 | 74 | 1014.2 |
| 20260906160514 | 91 | 331 | 0.0 | 2.0 | 0.00 | 0.05 | 0.00 | 74 | 1014.4 |
| 20260906160034 | 90 | 253 | 0.0 | 2.0 | 0.00 | 0.05 | 0.00 | 77 | 1014.5 |
| 20260906155519 | 90 | 239 | 0.0 | 2.0 | 0.00 | 0.05 | 0.00 | 77 | 1014.5 |
| 20260906155009 | 90 | 248 | 0.0 | 2.0 | 0.00 | 0.05 | 0.00 | 73 | 1014.6 |
| 20260906154528 | 91 | 257 | 0.0 | 1.0 | 0.00 | 0.05 | 0.00 | 73 | 1014.6 |
| 20260906154012 | 91 | 281 | 0.0 | 3.0 | 0.00 | 0.05 | 0.00 | 75 | 1014.7 |
| 20260906153513 | 91 | 237 | 0.0 | 3.0 | 0.00 | 0.05 | 0.00 | 76 | 1014.6 |
| 20260906153030 | 90 | 192 | 0.0 | 2.0 | 0.00 | 0.05 | 0.00 | 79 | 1014.7 |
| 20260906152516 | 89 | 215 | 0.0 | 1.0 | 0.00 | 0.05 | 0.00 | 77 | 1014.6 |
| 20260906152015 | 89 | 219 | 0.0 | 1.0 | 0.00 | 0.05 | 0.00 | 76 | 1014.6 |
| 20260906151531 | 89 | 350 | 0.0 | 1.0 | 0.00 | 0.05 | 0.00 | 78 | 1014.7 |
| 20260906151019 | 89 | 252 | 0.0 | 1.0 | 0.00 | 0.05 | 0.00 | 79 | 1014.7 |
| 20260906150516 | 88 | 245 | 0.0 | 1.0 | 0.00 | 0.05 | 0.00 | 80 | 1014.7 |
| 20260906150026 | 88 | 281 | 0.0 | 1.0 | 0.00 | 0.05 | 0.00 | 80 | 1014.9 |
| 20260906145517 | 87 | 265 | 0.0 | 1.0 | 0.00 | 0.05 | 0.00 | 80 | 1014.9 |
| 20260906145020 | 87 | 225 | 0.0 | 1.0 | 0.00 | 0.05 | 0.00 | 82 | 1014.9 |
| 20260906144532 | 87 | 261 | 0.0 | 1.0 | 0.00 | 0.05 | 0.00 | 84 | 1014.7 |
| 20260906144012 | 86 | 207 | 0.0 | 0.0 | 0.00 | 0.05 | 0.00 | 86 | 1014.7 |
| 20260906143514 | 85 | 223 | 0.0 | 0.0 | 0.00 | 0.05 | 0.00 | 88 | 1014.8 |
| 20260906143025 | 85 | 200 | 0.0 | 0.0 | 0.00 | 0.05 | 0.00 | 90 | 1014.8 |
| 20260906142512 | 84 | 221 | 0.0 | 1.0 | 0.00 | 0.05 | 0.00 | 89 | 1014.9 |
| 20260906142014 | 83 | 232 | 0.0 | 1.0 | 0.00 | 0.05 | 0.00 | 90 | 1015.0 |
| 20260906141531 | 82 | 266 | 0.0 | 0.0 | 0.00 | 0.05 | 0.00 | 89 | 1015.1 |
| 20260906141018 | 82 | 271 | 0.0 | 0.0 | 0.00 | 0.05 | 0.00 | 89 | 1015.1 |
| 20260906140516 | 82 | 245 | 0.0 | 0.0 | 0.00 | 0.05 | 0.00 | 90 | 1015.1 |
| 20260906140030 | 82 | 213 | 0.0 | 0.0 | 0.00 | 0.05 | 0.00 | 91 | 1015.1 |
| 20260906135516 | 82 | 238 | 0.0 | 0.0 | 0.00 | 0.05 | 0.00 | 92 | 1015.1 |
| 20260906135012 | 81 | 54 | 0.0 | 0.0 | 0.00 | 0.05 | 0.00 | 92 | 1015.1 |
| 20260906134532 | 80 | 223 | 0.0 | 0.0 | 0.00 | 0.05 | 0.00 | 93 | 1015.1 |
| 20260906134015 | 80 | 223 | 0.0 | 0.0 | 0.00 | 0.05 | 0.00 | 93 | 1015.1 |
| 20260906133519 | 80 | 223 | 0.0 | 0.0 | 0.00 | 0.05 | 0.00 | 93 | 1015.1 |
| 20260906133030 | 80 | 198 | 0.0 | 0.0 | 0.00 | 0.05 | 0.00 | 93 | 1015.2 |
| 20260906132506 | 80 | 198 | 0.0 | 0.0 | 0.00 | 0.05 | 0.00 | 95 | 1015.2 |
| 20260906132006 | 79 | 198 | 0.0 | 0.0 | 0.00 | 0.05 | 0.00 | 94 | 1015.2 |
| 20260906131513 | 79 | 198 | 0.0 | 0.0 | 0.00 | 0.05 | 0.00 | 94 | 1015.2 |
| 20260906131003 | 79 | 198 | 0.0 | 0.0 | 0.00 | 0.05 | 0.00 | 95 | 1015.1 |
| 20260906130504 | 79 | 198 | 0.0 | 0.0 | 0.00 | 0.05 | 0.00 | 95 | 1015.0 |
| 20260906130011 | 78 | 198 | 0.0 | 0.0 | 0.00 | 0.05 | 0.00 | 95 | 1014.9 |
| 20260906125506 | 78 | 198 | 0.0 | 0.0 | 0.00 | 0.05 | 0.00 | 95 | 1015.0 |
| 20260906125004 | 78 | 198 | 0.0 | 0.0 | 0.00 | 0.05 | 0.00 | 95 | 1015.0 |
| 20260906124510 | 77 | 198 | 0.0 | 0.0 | 0.00 | 0.05 | 0.00 | 95 | 1015.0 |
| 20260906124004 | 77 | 198 | 0.0 | 0.0 | 0.00 | 0.05 | 0.00 | 95 | 1014.9 |
| 20260906123503 | 76 | 198 | 0.0 | 0.0 | 0.00 | 0.05 | 0.00 | 95 | 1014.8 |
| 20260906123012 | 76 | 198 | 0.0 | 0.0 | 0.00 | 0.05 | 0.00 | 95 | 1014.8 |
| 20260906122506 | 76 | 198 | 0.0 | 0.0 | 0.00 | 0.05 | 0.00 | 95 | 1014.8 |
| 20260906122004 | 76 | 198 | 0.0 | 0.0 | 0.00 | 0.05 | 0.00 | 94 | 1014.8 |
| 20260906121512 | 75 | 198 | 0.0 | 0.0 | 0.00 | 0.05 | 0.00 | 94 | 1014.8 |
| 20260906121006 | 75 | 215 | 0.0 | 0.0 | 0.00 | 0.05 | 0.00 | 94 | 1014.8 |
| 20260906120505 | 75 | 215 | 0.0 | 0.0 | 0.00 | 0.05 | 0.00 | 95 | 1014.6 |
| 20260906120015 | 75 | 215 | 0.0 | 0.0 | 0.00 | 0.05 | 0.00 | 94 | 1014.7 |
| 20260906115503 | 75 | 215 | 0.0 | 0.0 | 0.00 | 0.05 | 0.00 | 94 | 1014.6 |
| 20260906115003 | 74 | 215 | 0.0 | 0.0 | 0.00 | 0.05 | 0.00 | 94 | 1014.6 |
| 20260906114519 | 74 | 215 | 0.0 | 0.0 | 0.00 | 0.05 | 0.00 | 94 | 1014.5 |
| 20260906114004 | 74 | 215 | 0.0 | 0.0 | 0.00 | 0.05 | 0.00 | 94 | 1014.5 |
| 20260906113507 | 74 | 215 | 0.0 | 0.0 | 0.00 | 0.05 | 0.00 | 94 | 1014.5 |
| 20260906113018 | 74 | 215 | 0.0 | 0.0 | 0.00 | 0.05 | 0.00 | 93 | 1014.3 |
| 20260906112507 | 74 | 215 | 0.0 | 0.0 | 0.00 | 0.05 | 0.00 | 93 | 1014.1 |
| 20260906112008 | 74 | 215 | 0.0 | 0.0 | 0.00 | 0.05 | 0.00 | 93 | 1014.1 |
| 20260906111516 | 74 | 215 | 0.0 | 0.0 | 0.00 | 0.05 | 0.00 | 93 | 1014.0 |
| 20260906111007 | 74 | 215 | 0.0 | 0.0 | 0.00 | 0.05 | 0.00 | 93 | 1014.1 |
| 20260906110506 | 74 | 215 | 0.0 | 0.0 | 0.00 | 0.05 | 0.00 | 93 | 1014.0 |
| 20260906110022 | 74 | 215 | 0.0 | 0.0 | 0.00 | 0.05 | 0.00 | 93 | 1013.8 |
| 20260906105506 | 74 | 215 | 0.0 | 0.0 | 0.00 | 0.05 | 0.00 | 93 | 1013.6 |
| 20260906105008 | 74 | 215 | 0.0 | 0.0 | 0.00 | 0.05 | 0.00 | 93 | 1013.5 |
| 20260906104520 | 74 | 215 | 0.0 | 0.0 | 0.00 | 0.05 | 0.00 | 93 | 1013.6 |
| 20260906104004 | 74 | 215 | 0.0 | 0.0 | 0.00 | 0.05 | 0.00 | 93 | 1013.5 |
| 20260906103507 | 74 | 215 | 0.0 | 0.0 | 0.00 | 0.05 | 0.00 | 93 | 1013.4 |
| 20260906103039 | 74 | 215 | 0.0 | 0.0 | 0.00 | 0.05 | 0.00 | 93 | 1013.3 |
| 20260906102511 | 74 | 215 | 0.0 | 0.0 | 0.00 | 0.05 | 0.00 | 93 | 1013.2 |
| 20260906102005 | 74 | 215 | 0.0 | 0.0 | 0.00 | 0.05 | 0.00 | 93 | 1013.3 |
| 20260906101523 | 74 | 215 | 0.0 | 0.0 | 0.00 | 0.05 | 0.00 | 93 | 1013.2 |
| 20260906101011 | 75 | 215 | 0.0 | 0.0 | 0.00 | 0.05 | 0.00 | 93 | 1013.2 |
| 20260906100510 | 75 | 215 | 0.0 | 0.0 | 0.00 | 0.05 | 0.00 | 93 | 1013.2 |
| 20260906100026 | 75 | 215 | 0.0 | 0.0 | 0.00 | 0.05 | 0.00 | 93 | 1013.2 |
| 20260906095507 | 75 | 215 | 0.0 | 0.0 | 0.00 | 0.05 | 0.00 | 93 | 1013.2 |
| 20260906095009 | 75 | 215 | 0.0 | 0.0 | 0.00 | 0.05 | 0.00 | 93 | 1012.9 |
| 20260906094519 | 75 | 215 | 0.0 | 0.0 | 0.00 | 0.05 | 0.00 | 93 | 1013.0 |
| 20260906094008 | 75 | 215 | 0.0 | 0.0 | 0.00 | 0.05 | 0.00 | 93 | 1013.1 |
| 20260906093509 | 75 | 215 | 0.0 | 0.0 | 0.00 | 0.05 | 0.00 | 92 | 1013.0 |
| 20260906093019 | 75 | 215 | 0.0 | 0.0 | 0.00 | 0.05 | 0.00 | 92 | 1012.9 |
| 20260906092507 | 75 | 215 | 0.0 | 0.0 | 0.00 | 0.05 | 0.00 | 92 | 1012.8 |
| 20260906092007 | 75 | 215 | 0.0 | 0.0 | 0.00 | 0.05 | 0.00 | 92 | 1012.7 |
| 20260906091525 | 75 | 215 | 0.0 | 0.0 | 0.00 | 0.05 | 0.00 | 93 | 1012.6 |
| 20260906091008 | 75 | 215 | 0.0 | 0.0 | 0.00 | 0.05 | 0.00 | 93 | 1012.5 |
| 20260906090507 | 75 | 215 | 0.0 | 0.0 | 0.00 | 0.05 | 0.00 | 93 | 1012.5 |
| 20260906090021 | 75 | 215 | 0.0 | 0.0 | 0.00 | 0.05 | 0.00 | 93 | 1012.4 |
| 20260906085512 | 75 | 215 | 0.0 | 0.0 | 0.00 | 0.05 | 0.00 | 93 | 1012.3 |
| 20260906085009 | 75 | 215 | 0.0 | 0.0 | 0.00 | 0.05 | 0.00 | 92 | 1012.4 |
| 20260906084523 | 75 | 215 | 0.0 | 0.0 | 0.00 | 0.05 | 0.00 | 92 | 1012.5 |
| 20260906084010 | 75 | 215 | 0.0 | 0.0 | 0.00 | 0.05 | 0.00 | 92 | 1012.5 |
| 20260906083507 | 75 | 215 | 0.0 | 0.0 | 0.00 | 0.05 | 0.00 | 92 | 1012.3 |
| 20260906083026 | 75 | 215 | 0.0 | 0.0 | 0.00 | 0.05 | 0.00 | 92 | 1012.3 |
| 20260906082508 | 75 | 215 | 0.0 | 0.0 | 0.00 | 0.05 | 0.00 | 92 | 1012.4 |
| 20260906082011 | 75 | 215 | 0.0 | 0.0 | 0.00 | 0.05 | 0.00 | 92 | 1012.5 |
| 20260906081525 | 75 | 215 | 0.0 | 0.0 | 0.00 | 0.05 | 0.00 | 92 | 1012.7 |
| 20260906081008 | 75 | 215 | 0.0 | 0.0 | 0.00 | 0.05 | 0.00 | 92 | 1012.6 |
| 20260906080508 | 75 | 215 | 0.0 | 0.0 | 0.00 | 0.05 | 0.00 | 92 | 1012.5 |
| 20260906080028 | 75 | 215 | 0.0 | 0.0 | 0.00 | 0.05 | 0.00 | 92 | 1012.4 |
| 20260906075511 | 75 | 215 | 0.0 | 0.0 | 0.00 | 0.05 | 0.00 | 92 | 1012.3 |
| 20260906075011 | 75 | 215 | 0.0 | 0.0 | 0.00 | 0.05 | 0.00 | 91 | 1012.3 |
| 20260906074529 | 76 | 215 | 0.0 | 0.0 | 0.00 | 0.05 | 0.00 | 91 | 1012.5 |
| 20260906074011 | 76 | 215 | 0.0 | 0.0 | 0.00 | 0.05 | 0.00 | 91 | 1012.5 |
| 20260906073512 | 76 | 215 | 0.0 | 0.0 | 0.00 | 0.05 | 0.00 | 91 | 1012.6 |
| 20260906073023 | 76 | 215 | 0.0 | 0.0 | 0.00 | 0.05 | 0.00 | 91 | 1012.7 |
| 20260906072510 | 76 | 215 | 0.0 | 0.0 | 0.00 | 0.05 | 0.00 | 91 | 1012.7 |
| 20260906072008 | 76 | 215 | 0.0 | 0.0 | 0.00 | 0.05 | 0.00 | 91 | 1012.7 |
| 20260906071526 | 76 | 214 | 0.0 | 0.0 | 0.00 | 0.05 | 0.00 | 91 | 1012.7 |
| 20260906071010 | 76 | 237 | 0.0 | 0.0 | 0.00 | 0.05 | 0.00 | 91 | 1012.9 |
| 20260906070507 | 76 | 236 | 0.0 | 0.0 | 0.00 | 0.05 | 0.00 | 91 | 1013.0 |
| 20260906070015 | 76 | 238 | 0.0 | 0.0 | 0.00 | 0.05 | 0.00 | 91 | 1013.0 |
| 20260906065508 | 76 | 238 | 0.0 | 0.0 | 0.00 | 0.05 | 0.00 | 91 | 1013.0 |
| 20260906065004 | 76 | 239 | 0.0 | 0.0 | 0.00 | 0.05 | 0.00 | 91 | 1013.2 |
| 20260906064503 | 76 | 232 | 0.0 | 0.0 | 0.00 | 0.05 | 0.00 | 91 | 1013.4 |
| 20260906064004 | 76 | 231 | 0.0 | 0.0 | 0.00 | 0.05 | 0.00 | 91 | 1013.4 |
| 20260906063506 | 76 | 231 | 0.0 | 0.0 | 0.00 | 0.05 | 0.00 | 91 | 1013.6 |
| 20260906063008 | 76 | 232 | 0.0 | 0.0 | 0.00 | 0.05 | 0.00 | 91 | 1013.7 |
| 20260906062504 | 76 | 232 | 0.0 | 0.0 | 0.00 | 0.05 | 0.00 | 91 | 1013.8 |
| 20260906062006 | 76 | 232 | 0.0 | 0.0 | 0.00 | 0.05 | 0.00 | 91 | 1013.7 |
| 20260906061512 | 76 | 232 | 0.0 | 0.0 | 0.00 | 0.05 | 0.00 | 91 | 1013.7 |
| 20260906061004 | 76 | 234 | 0.0 | 0.0 | 0.00 | 0.05 | 0.00 | 91 | 1013.8 |
| 20260906060506 | 76 | 234 | 0.0 | 0.0 | 0.00 | 0.05 | 0.00 | 90 | 1013.9 |
| 20260906060023 | 76 | 234 | 0.0 | 0.0 | 0.00 | 0.05 | 0.00 | 90 | 1014.0 |
| 20260906055503 | 76 | 234 | 0.0 | 0.0 | 0.00 | 0.05 | 0.00 | 90 | 1013.9 |
| 20260906055007 | 76 | 211 | 0.0 | 0.0 | 0.00 | 0.05 | 0.00 | 90 | 1014.0 |
| 20260906054534 | 76 | 210 | 0.0 | 0.0 | 0.00 | 0.05 | 0.00 | 90 | 1014.1 |
| 20260906054003 | 76 | 210 | 0.0 | 0.0 | 0.00 | 0.05 | 0.00 | 89 | 1014.2 |
| 20260906053502 | 76 | 210 | 0.0 | 0.0 | 0.00 | 0.05 | 0.00 | 89 | 1014.1 |
| 20260906053009 | 76 | 210 | 0.0 | 0.0 | 0.00 | 0.05 | 0.00 | 89 | 1014.1 |
| 20260906052503 | 76 | 210 | 0.0 | 0.0 | 0.00 | 0.05 | 0.00 | 89 | 1014.2 |
| 20260906052007 | 77 | 210 | 0.0 | 0.0 | 0.00 | 0.05 | 0.00 | 89 | 1014.3 |
| 20260906051514 | 77 | 210 | 0.0 | 0.0 | 0.00 | 0.05 | 0.00 | 89 | 1014.2 |
| 20260906051007 | 77 | 210 | 0.0 | 0.0 | 0.00 | 0.05 | 0.00 | 89 | 1014.2 |
| 20260906050509 | 77 | 211 | 0.0 | 0.0 | 0.00 | 0.05 | 0.00 | 89 | 1014.3 |
| 20260906050011 | 77 | 211 | 0.0 | 0.0 | 0.00 | 0.05 | 0.00 | 88 | 1014.3 |
| 20260906045509 | 77 | 220 | 0.0 | 0.0 | 0.00 | 0.05 | 0.00 | 89 | 1014.3 |
| 20260906045008 | 77 | 225 | 0.0 | 0.0 | 0.00 | 0.05 | 0.00 | 89 | 1014.2 |
| 20260906044508 | 77 | 230 | 0.0 | 0.0 | 0.00 | 0.05 | 0.00 | 88 | 1014.3 |
| 20260906044007 | 77 | 229 | 0.0 | 0.0 | 0.00 | 0.05 | 0.00 | 1014.3 | |
| 20260906043510 | 77 | 228 | 0.0 | 0.0 | 0.00 | 0.05 | 0.00 | 1014.3 | |
| 20260906043030 | 78 | 216 | 0.0 | 0.0 | 0.00 | 0.05 | 0.00 | 1014.3 | |
| 20260906042504 | 78 | 217 | 0.0 | 0.0 | 0.00 | 0.05 | 0.00 | 1014.4 | |
| 20260906042003 | 78 | 205 | 0.0 | 0.0 | 0.00 | 0.05 | 0.00 | 87 | 1014.4 |
| 20260906041507 | 78 | 193 | 0.0 | 1.0 | 0.00 | 0.05 | 0.00 | 87 | 1014.4 |
| 20260906041003 | 78 | 188 | 0.0 | 2.0 | 0.00 | 0.05 | 0.00 | 87 | 1014.4 |
| 20260906040503 | 78 | 184 | 0.0 | 2.0 | 0.00 | 0.05 | 0.00 | 87 | 1014.5 |
| 20260906040016 | 78 | 191 | 0.0 | 1.0 | 0.00 | 0.05 | 0.00 | 87 | 1014.6 |
| 20260906035508 | 78 | 213 | 0.0 | 0.0 | 0.00 | 0.05 | 0.05 | 88 | 1014.5 |
| 20260906035003 | 78 | 190 | 0.0 | 0.0 | 0.00 | 0.05 | 0.05 | 87 | 1014.5 |
| 20260906034521 | 78 | 195 | 0.0 | 0.0 | 0.00 | 0.05 | 0.05 | 87 | 1014.5 |
| 20260906034011 | 78 | 196 | 0.0 | 0.0 | 0.00 | 0.05 | 0.05 | 87 | 1014.5 |
| 20260906033503 | 78 | 201 | 0.0 | 1.0 | 0.00 | 0.05 | 0.05 | 87 | 1014.5 |
| 20260906033015 | 79 | 202 | 0.0 | 1.0 | 0.00 | 0.05 | 0.05 | 87 | 1014.5 |
| 20260906032509 | 79 | 207 | 0.0 | 1.0 | 0.00 | 0.05 | 0.05 | 87 | 1014.6 |
| 20260906032015 | 79 | 190 | 0.0 | 4.0 | 0.00 | 0.05 | 0.05 | 87 | 1014.7 |
| 20260906031512 | 79 | 195 | 0.0 | 4.0 | 0.00 | 0.05 | 0.05 | 88 | 1014.7 |
| 20260906031004 | 79 | 215 | 0.0 | 4.0 | 0.00 | 0.05 | 0.05 | 88 | 1014.7 |
| 20260906030504 | 79 | 196 | 0.0 | 4.0 | 0.00 | 0.05 | 0.05 | 88 | 1014.7 |
| 20260906030012 | 79 | 167 | 0.0 | 1.0 | 0.00 | 0.05 | 0.05 | 87 | 1014.7 |
| 20260906025506 | 79 | 196 | 0.0 | 2.0 | 0.00 | 0.05 | 0.05 | 87 | 1014.6 |
| 20260906025006 | 79 | 192 | 0.0 | 2.0 | 0.00 | 0.05 | 0.05 | 87 | 1014.7 |
| 20260906024517 | 79 | 188 | 0.0 | 2.0 | 0.00 | 0.05 | 0.05 | 86 | 1014.7 |
| 20260906024002 | 79 | 181 | 0.0 | 1.0 | 0.00 | 0.05 | 0.05 | 86 | 1014.6 |
| 20260906023506 | 79 | 144 | 0.0 | 1.0 | 0.00 | 0.05 | 0.05 | 86 | 1014.7 |
| 20260906023025 | 79 | 180 | 0.0 | 2.0 | 0.00 | 0.05 | 0.05 | 86 | 1014.8 |
| 20260906022511 | 79 | 196 | 0.0 | 2.0 | 0.00 | 0.05 | 0.05 | 86 | 1014.9 |
| 20260906022003 | 79 | 148 | 0.0 | 1.0 | 0.00 | 0.05 | 0.05 | 86 | 1014.9 |
| 20260906021537 | 79 | 186 | 0.0 | 1.0 | 0.00 | 0.05 | 0.05 | 86 | 1014.9 |
| 20260906021016 | 79 | 148 | 0.0 | 3.0 | 0.00 | 0.05 | 0.05 | 86 | 1014.8 |
| 20260906020503 | 79 | 177 | 0.0 | 3.0 | 0.00 | 0.05 | 0.05 | 87 | 1014.7 |
| 20260906020021 | 79 | 192 | 0.0 | 3.0 | 0.00 | 0.05 | 0.05 | 87 | 1014.7 |
| 20260906015505 | 79 | 164 | 0.0 | 3.0 | 0.00 | 0.05 | 0.05 | 87 | 1014.7 |
| 20260906015006 | 79 | 159 | 0.0 | 2.0 | 0.00 | 0.05 | 0.05 | 87 | 1014.7 |
| 20260906014519 | 80 | 153 | 0.0 | 2.0 | 0.00 | 0.05 | 0.05 | 87 | 1014.7 |
| 20260906014008 | 80 | 147 | 0.0 | 1.0 | 0.00 | 0.05 | 0.05 | 87 | 1014.5 |
| 20260906013507 | 80 | 147 | 0.0 | 1.0 | 0.00 | 0.05 | 0.05 | 87 | 1014.5 |
| 20260906013032 | 80 | 151 | 0.0 | 1.0 | 0.00 | 0.05 | 0.05 | 87 | 1014.5 |
| 20260906012508 | 80 | 141 | 0.0 | 1.0 | 0.00 | 0.05 | 0.05 | 86 | 1014.3 |
| 20260906012009 | 80 | 128 | 0.0 | 1.0 | 0.00 | 0.05 | 0.05 | 86 | 1014.2 |
| 20260906011532 | 80 | 145 | 0.0 | 1.0 | 0.00 | 0.05 | 0.05 | 86 | 1014.1 |
| 20260906011006 | 80 | 175 | 0.0 | 0.0 | 0.00 | 0.05 | 0.05 | 86 | 1014.0 |
| 20260906010508 | 80 | 175 | 0.0 | 0.0 | 0.00 | 0.05 | 0.05 | 85 | 1014.0 |
| 20260906010034 | 81 | 175 | 0.0 | 0.0 | 0.00 | 0.05 | 0.05 | 85 | 1013.9 |
| 20260906005515 | 81 | 175 | 0.0 | 0.0 | 0.00 | 0.05 | 0.05 | 84 | 1013.8 |
| 20260906005009 | 81 | 175 | 0.0 | 0.0 | 0.00 | 0.05 | 0.05 | 84 | 1013.9 |
| 20260906004517 | 81 | 175 | 0.0 | 1.0 | 0.00 | 0.05 | 0.05 | 84 | 1013.8 |
| 20260906004012 | 81 | 175 | 0.0 | 1.0 | 0.00 | 0.05 | 0.05 | 84 | 1013.8 |
| 20260906003507 | 81 | 175 | 0.0 | 0.0 | 0.00 | 0.05 | 0.05 | 83 | 1014.0 |
| 20260906003025 | 82 | 175 | 0.0 | 0.0 | 0.00 | 0.05 | 0.05 | 83 | 1014.0 |
| 20260906002510 | 82 | 175 | 0.0 | 0.0 | 0.00 | 0.05 | 0.05 | 82 | 1013.8 |
| 20260906002008 | 82 | 175 | 0.0 | 0.0 | 0.00 | 0.05 | 0.05 | 82 | 1013.9 |
| 20260906001521 | 82 | 175 | 0.0 | 0.0 | 0.00 | 0.05 | 0.05 | 82 | 1013.9 |
| 20260906001010 | 83 | 175 | 0.0 | 0.0 | 0.00 | 0.05 | 0.05 | 82 | 1014.1 |
| 20260906000511 | 83 | 175 | 0.0 | 0.0 | 0.00 | 0.05 | 0.05 | 81 | 1014.0 |
| 20260906000022 | 83 | 175 | 0.0 | 1.0 | 0.00 | 0.05 | 0.05 | 81 | 1013.8 |
| 20260905235510 | 84 | 175 | 0.0 | 1.0 | 0.00 | 0.05 | 0.05 | 80 | 1013.5 |
| 20260905235013 | 84 | 171 | 0.0 | 1.0 | 0.00 | 0.05 | 0.05 | 79 | 1013.6 |
| 20260905234532 | 84 | 167 | 0.0 | 1.0 | 0.00 | 0.05 | 0.05 | 78 | 1013.5 |
| 20260905234008 | 85 | 168 | 0.0 | 1.0 | 0.00 | 0.05 | 0.05 | 78 | 1013.4 |
| 20260905233510 | 85 | 171 | 0.0 | 1.0 | 0.00 | 0.05 | 0.05 | 77 | 1013.4 |
| 20260905233018 | 86 | 118 | 0.0 | 1.0 | 0.00 | 0.05 | 0.05 | 77 | 1013.5 |
| 20260905232503 | 86 | 120 | 0.0 | 2.0 | 0.00 | 0.05 | 0.05 | 76 | 1013.6 |
| 20260905232008 | 87 | 107 | 0.0 | 3.0 | 0.00 | 0.05 | 0.05 | 75 | 1013.4 |
| 20260905231525 | 88 | 79 | 0.0 | 3.0 | 0.00 | 0.05 | 0.05 | 74 | 1013.5 |
| 20260905231011 | 88 | 89 | 0.0 | 3.0 | 0.00 | 0.05 | 0.05 | 73 | 1013.5 |
| 20260905230508 | 89 | 80 | 0.0 | 6.0 | 0.00 | 0.05 | 0.05 | 73 | 1013.4 |
| 20260905230029 | 90 | 94 | 1.0 | 6.0 | 0.00 | 0.05 | 0.05 | 73 | 1013.5 |
| 20260905225519 | 90 | 110 | 0.0 | 4.0 | 0.00 | 0.05 | 0.05 | 73 | 1013.5 |
| 20260905225012 | 90 | 89 | 0.0 | 7.0 | 0.00 | 0.05 | 0.05 | 72 | 1013.6 |
| 20260905224529 | 90 | 69 | 1.0 | 7.0 | 0.00 | 0.05 | 0.05 | 73 | 1013.5 |
| 20260905224012 | 89 | 34 | 0.0 | 3.0 | 0.00 | 0.05 | 0.05 | 73 | 1013.5 |
| 20260905223520 | 89 | 92 | 0.0 | 7.0 | 0.00 | 0.05 | 0.05 | 74 | 1013.5 |
| 20260905223020 | 88 | 101 | 3.0 | 7.0 | 0.01 | 0.05 | 0.05 | 74 | 1013.5 |
| 20260905222514 | 89 | 42 | 0.0 | 4.0 | 0.01 | 0.05 | 0.05 | 76 | 1013.5 |
| 20260905222007 | 89 | 86 | 0.0 | 4.0 | 0.02 | 0.05 | 0.05 | 75 | 1013.5 |
| 20260905221517 | 89 | 49 | 0.0 | 4.0 | 0.02 | 0.05 | 0.05 | 75 | 1013.7 |
| 20260905221010 | 89 | 67 | 1.0 | 4.0 | 0.02 | 0.05 | 0.05 | 78 | 1013.5 |
| 20260905220510 | 88 | 360 | 0.0 | 0.0 | 0.02 | 0.05 | 0.05 | 78 | 1013.4 |
| 20260905220026 | 87 | 360 | 0.0 | 0.0 | 0.04 | 0.05 | 0.05 | 80 | 1013.3 |
| 20260905215509 | 86 | 360 | 0.0 | 0.0 | 0.05 | 0.05 | 0.05 | 81 | 1013.2 |
| 20260905215011 | 86 | 360 | 0.0 | 1.0 | 0.05 | 0.05 | 0.05 | 80 | 1013.2 |
| 20260905214533 | 85 | 360 | 0.0 | 1.0 | 0.05 | 0.05 | 0.05 | 80 | 1013.2 |
| 20260905214018 | 85 | 327 | 0.0 | 2.0 | 0.05 | 0.05 | 0.05 | 78 | 1013.2 |
| 20260905213509 | 85 | 189 | 0.0 | 2.0 | 0.05 | 0.05 | 0.05 | 78 | 1013.1 |
| 20260905213030 | 85 | 286 | 0.0 | 4.0 | 0.04 | 0.04 | 0.04 | 74 | 1013.2 |
| 20260905212519 | 85 | 290 | 0.0 | 9.0 | 0.04 | 0.04 | 0.04 | 75 | 1013.3 |
| 20260905212008 | 85 | 272 | 0.0 | 9.0 | 0.03 | 0.03 | 0.03 | 75 | 1013.5 |
| 20260905211531 | 86 | 236 | 1.0 | 8.0 | 0.03 | 0.03 | 0.03 | 78 | 1013.4 |
| 20260905211017 | 86 | 331 | 0.0 | 3.0 | 0.03 | 0.03 | 0.03 | 76 | 1013.2 |
| 20260905210507 | 87 | 36 | 0.0 | 4.0 | 0.03 | 0.03 | 0.03 | 74 | 1013.3 |
| 20260905210023 | 87 | 323 | 0.0 | 7.0 | 0.01 | 0.01 | 0.01 | 70 | 1013.4 |
| 20260905205510 | 88 | 17 | 2.0 | 10.0 | 0.00 | 0.00 | 0.00 | 67 | 1013.2 |
| 20260905205013 | 88 | 23 | 1.0 | 12.0 | 0.00 | 0.00 | 0.00 | 67 | 1013.2 |
| 20260905204519 | 88 | 340 | 4.0 | 12.0 | 0.00 | 0.00 | 0.00 | 68 | 1013.3 |
| 20260905204012 | 88 | 10 | 6.0 | 17.0 | 0.00 | 0.00 | 0.00 | 67 | 1013.3 |
| 20260905203515 | 88 | 328 | 10.0 | 18.0 | 0.00 | 0.00 | 0.00 | 65 | 1013.4 |
| 20260905203031 | 89 | 352 | 8.0 | 20.0 | 0.00 | 0.00 | 0.00 | 65 | 1013.3 |
| 20260905202510 | 89 | 329 | 9.0 | 20.0 | 0.00 | 0.00 | 0.00 | 63 | 1013.3 |
| 20260905202013 | 90 | 322 | 10.0 | 18.0 | 0.00 | 0.00 | 0.00 | 60 | 1013.3 |
| 20260905201534 | 93 | 334 | 10.0 | 18.0 | 0.00 | 0.00 | 0.00 | 59 | 1013.2 |
| 20260905201018 | 95 | 360 | 8.0 | 14.0 | 0.00 | 0.00 | 0.00 | 59 | 1013.1 |
| 20260905200513 | 95 | 342 | 6.0 | 12.0 | 0.00 | 0.00 | 0.00 | 60 | 1013.1 |
| 20260905200034 | 95 | 296 | 1.0 | 12.0 | 0.00 | 0.00 | 0.00 | 60 | 1013.1 |
| 20260905195510 | 95 | 332 | 3.0 | 13.0 | 0.00 | 0.00 | 0.00 | 58 | 1013.3 |
| 20260905195012 | 95 | 334 | 4.0 | 13.0 | 0.00 | 0.00 | 0.00 | 58 | 1013.2 |
| 20260905194525 | 96 | 295 | 1.0 | 13.0 | 0.00 | 0.00 | 0.00 | 58 | 1013.2 |
| 20260905194014 | 97 | 279 | 6.0 | 13.0 | 0.00 | 0.00 | 0.00 | 56 | 1013.3 |
| 20260905193517 | 98 | 271 | 6.0 | 11.0 | 0.00 | 0.00 | 0.00 | 57 | 1013.3 |
| 20260905193032 | 98 | 326 | 3.0 | 13.0 | 0.00 | 0.00 | 0.00 | 57 | 1013.3 |
| 20260905192515 | 98 | 257 | 8.0 | 13.0 | 0.00 | 0.00 | 0.00 | 57 | 1013.2 |
| 20260905192013 | 97 | 193 | 4.0 | 13.0 | 0.00 | 0.00 | 0.00 | 58 | 1013.4 |
| 20260905191530 | 97 | 265 | 2.0 | 11.0 | 0.00 | 0.00 | 0.00 | 57 | 1013.5 |
| 20260905191012 | 96 | 286 | 2.0 | 12.0 | 0.00 | 0.00 | 0.00 | 62 | 1013.5 |
| 20260905190515 | 96 | 241 | 4.0 | 12.0 | 0.00 | 0.00 | 0.00 | 58 | 1013.6 |
| 20260905190045 | 96 | 208 | 5.0 | 12.0 | 0.00 | 0.00 | 0.00 | 63 | 1013.7 |
| 20260905185515 | 96 | 203 | 5.0 | 12.0 | 0.00 | 0.00 | 0.00 | 64 | 1013.8 |
| 20260905185015 | 95 | 218 | 4.0 | 11.0 | 0.00 | 0.00 | 0.00 | 63 | 1013.7 |
| 20260905184541 | 95 | 232 | 4.0 | 11.0 | 0.00 | 0.00 | 0.00 | 63 | 1013.7 |
| 20260905184011 | 95 | 266 | 6.0 | 11.0 | 0.00 | 0.00 | 0.00 | 60 | 1013.8 |
| 20260905183513 | 96 | 252 | 6.0 | 14.0 | 0.00 | 0.00 | 0.00 | 61 | 1013.8 |